Time;durP1;ratioP1;P1;durP2;ratioP2;P2;SDS_P1;SDS_P2;PMS_P1;PMS_P2;Temp;Humidity;BMP_temperature;BMP_pressure;BME280_temperature;BME280_humidity;BME280_pressure;Samples;Min_cycle;Max_cycle;Signal;HPM_P1;HPM_P2
2021/06/08 00:04:15;;;;;;;8.10;3.97;;;;;;;17.00;64.19;100337.52;125114;1102;104163;-77
2021/06/08 00:06:45;;;;;;;6.43;3.57;;;;;;;17.00;63.92;100333.97;125187;1102;104162;-78
2021/06/08 00:09:16;;;;;;;7.43;4.07;;;;;;;17.01;64.40;100325.15;125051;1102;104157;-78
2021/06/08 00:11:46;;;;;;;5.67;4.07;;;;;;;17.04;64.40;100330.47;125175;1102;104156;-78
2021/06/08 00:14:16;;;;;;;8.93;3.80;;;;;;;17.05;64.19;100327.83;125164;1102;104159;-77
2021/06/08 00:16:46;;;;;;;10.43;4.07;;;;;;;17.05;64.15;100327.83;125181;1102;104287;-78
2021/06/08 00:19:16;;;;;;;12.10;4.70;;;;;;;17.04;64.32;100325.17;124960;1102;104198;-77
2021/06/08 00:21:47;;;;;;;8.50;3.77;;;;;;;17.02;64.75;100321.63;125076;1102;104149;-77
2021/06/08 00:24:17;;;;;;;11.80;4.17;;;;;;;17.04;64.91;100320.74;125088;1102;104277;-78
2021/06/08 00:26:47;;;;;;;5.77;3.40;;;;;;;17.03;64.41;100320.73;124989;1106;104287;-78
2021/06/08 00:29:18;;;;;;;5.37;3.50;;;;;;;16.99;64.29;100316.31;125070;1102;104152;-77
2021/06/08 00:31:49;;;;;;;6.00;3.60;;;;;;;16.92;64.55;100314.48;124986;1105;104290;-78
2021/06/08 00:34:19;;;;;;;7.17;4.03;;;;;;;16.87;64.84;100314.45;125060;1102;104260;-77
2021/06/08 00:36:49;;;;;;;9.40;3.60;;;;;;;16.80;64.63;100320.57;125136;1102;104229;-78
2021/06/08 00:39:19;;;;;;;6.33;3.47;;;;;;;16.76;65.00;100318.77;124933;1102;104146;-77
2021/06/08 00:41:49;;;;;;;9.80;3.50;;;;;;;16.72;65.14;100320.52;124984;1102;104711;-77
2021/06/08 00:44:19;;;;;;;7.20;3.53;;;;;;;16.69;64.59;100324.02;125134;1102;104155;-77
2021/06/08 00:46:50;;;;;;;32.33;5.47;;;;;;;16.66;65.26;100320.46;124995;1102;104364;-77
2021/06/08 00:49:20;;;;;;;35.50;6.20;;;;;;;16.64;65.12;100324.84;124984;1102;104144;-77
2021/06/08 00:51:50;;;;;;;28.43;5.73;;;;;;;16.65;64.70;100316.03;125095;1102;104143;-77
2021/06/08 00:54:21;;;;;;;14.50;4.53;;;;;;;16.64;64.92;100316.89;125117;1102;104149;-77
2021/06/08 00:56:51;;;;;;;13.37;3.67;;;;;;;16.66;64.73;100328.41;125126;1102;104153;-76
2021/06/08 00:59:21;;;;;;;10.30;3.80;;;;;;;16.67;65.04;100322.21;124966;1106;104220;-78
2021/06/08 01:01:51;;;;;;;10.63;4.13;;;;;;;16.70;65.39;100325.80;124987;1102;104299;-77
2021/06/08 01:04:22;;;;;;;6.00;3.30;;;;;;;16.70;65.20;100324.89;125154;1102;104156;-77
2021/06/08 01:06:52;;;;;;;8.40;3.60;;;;;;;16.70;64.99;100314.29;125153;1101;104184;-77
2021/06/08 01:09:22;;;;;;;10.73;3.63;;;;;;;16.70;64.86;100322.23;124906;1102;104143;-78
2021/06/08 01:11:52;;;;;;;6.37;3.30;;;;;;;16.67;65.50;100316.91;125071;1102;104226;-78
2021/06/08 01:14:23;;;;;;;94.43;19.03;;;;;;;16.65;65.33;100322.20;124933;1106;104341;-77
2021/06/08 01:16:53;;;;;;;43.73;8.50;;;;;;;16.61;65.46;100320.42;124920;1105;104201;-77
2021/06/08 01:19:23;;;;;;;67.40;9.17;;;;;;;16.57;65.04;100325.69;124941;1105;104197;-78
2021/06/08 01:21:54;;;;;;;50.30;8.20;;;;;;;16.53;65.12;100323.01;124944;1105;104207;-76
2021/06/08 01:24:24;;;;;;;22.07;5.00;;;;;;;16.48;65.11;100323.83;124951;1105;104406;-77
2021/06/08 01:26:55;;;;;;;19.57;4.73;;;;;;;16.42;65.18;100323.77;124928;1105;104449;-77
2021/06/08 01:29:28;;;;;;;10.73;3.80;;;;;;;16.38;65.78;100322.88;124954;1106;104197;-77
2021/06/08 01:31:59;;;;;;;6.30;3.27;;;;;;;16.37;65.61;100321.08;124927;1105;111851;-78
2021/06/08 01:34:30;;;;;;;7.43;3.20;;;;;;;16.35;65.88;100321.06;124953;1103;104192;-76
2021/06/08 01:37:01;;;;;;;7.77;3.33;;;;;;;16.36;65.79;100324.59;125003;1105;104229;-78
2021/06/08 01:39:33;;;;;;;5.77;3.17;;;;;;;16.34;65.40;100321.05;124915;1105;104634;-77
2021/06/08 01:42:04;;;;;;;6.37;3.30;;;;;;;16.28;65.93;100327.20;124922;1105;104319;-76
2021/06/08 01:44:35;;;;;;;8.87;3.20;;;;;;;16.24;66.06;100332.45;124952;1105;104315;-78
2021/06/08 01:47:05;;;;;;;6.33;3.07;;;;;;;16.19;65.54;100329.75;125170;1102;104612;-78
2021/06/08 01:49:35;;;;;;;7.27;3.37;;;;;;;16.14;65.84;100329.70;125065;1102;104194;-77
2021/06/08 01:52:16;;;;;;;5.37;3.30;;;;;;;16.11;65.52;100328.77;125088;1102;104396;-78
2021/06/08 01:54:54;;;;;;;5.47;3.00;;;;;;;16.08;65.57;100329.64;125122;1102;104152;-79
2021/06/08 01:57:33;;;;;;;6.60;2.90;;;;;;;16.06;65.63;100326.07;124984;1102;104261;-77
2021/06/08 02:00:09;;;;;;;6.73;3.00;;;;;;;16.04;65.56;100337.53;125142;1102;104145;-77
2021/06/08 02:02:53;;;;;;;6.27;2.83;;;;;;;15.99;65.94;100334.84;125127;1102;119135;-77
2021/06/08 02:05:28;;;;;;;;;;;;;;;15.96;65.96;100333.03;125149;1102;104251;-77
2021/06/08 02:08:19;;;;;;;7.87;3.20;;;;;;;15.93;65.78;100340.06;125156;1102;104852;-78
2021/06/08 02:10:53;;;;;;;7.60;3.50;;;;;;;15.91;65.83;100334.75;125218;1102;104201;-77
2021/06/08 02:13:32;;;;;;;8.00;3.17;;;;;;;15.90;66.35;100332.09;125213;1102;107919;-78
2021/06/08 02:16:12;;;;;;;6.17;3.30;;;;;;;15.88;66.30;100337.36;125158;1102;104150;-77
2021/06/08 02:18:46;;;;;;;5.83;3.00;;;;;;;15.88;66.78;100336.45;125133;1102;104176;-77
2021/06/08 02:21:19;;;;;;;9.78;3.47;;;;;;;15.91;65.92;100331.20;125137;1102;104650;-77
2021/06/08 02:23:53;;;;;;;5.67;2.90;;;;;;;15.93;65.96;100340.06;125140;1101;104597;-78
2021/06/08 02:26:26;;;;;;;9.87;3.13;;;;;;;15.93;66.02;100345.36;125207;1102;104246;-77
2021/06/08 02:28:57;;;;;;;5.20;3.00;;;;;;;15.91;66.62;100347.07;125073;1102;104215;-77
2021/06/08 02:31:29;;;;;;;7.13;3.20;;;;;;;15.91;66.80;100350.62;124894;1105;104682;-77
2021/06/08 02:34:00;;;;;;;6.17;3.00;;;;;;;15.92;67.02;100348.86;124936;1105;104332;-77
2021/06/08 02:36:30;;;;;;;6.50;3.10;;;;;;;15.92;66.13;100344.44;124987;1103;104223;-77
2021/06/08 02:39:01;;;;;;;9.43;3.37;;;;;;;15.93;66.31;100345.36;124953;1105;104310;-78
2021/06/08 02:41:32;;;;;;;7.67;3.00;;;;;;;15.95;66.38;100343.60;124981;1105;104153;-77
2021/06/08 02:44:03;;;;;;;7.93;3.07;;;;;;;15.96;66.43;100345.39;124892;1105;104424;-79
2021/06/08 02:46:33;;;;;;;8.35;3.25;;;;;;;15.97;67.02;100357.73;124970;1105;104742;-78
2021/06/08 02:49:06;;;;;;;4.77;3.10;;;;;;;15.97;67.00;100348.05;124962;1105;104192;-78
2021/06/08 02:51:37;;;;;;;6.50;3.17;;;;;;;15.98;66.25;100338.34;125000;1106;104159;-78
2021/06/08 02:54:08;;;;;;;8.13;3.10;;;;;;;16.00;66.18;100347.17;124915;1105;104169;-78
2021/06/08 02:56:38;;;;;;;10.20;3.00;;;;;;;16.02;66.82;100342.81;124951;1106;104274;-78
2021/06/08 02:59:09;;;;;;;7.60;2.93;;;;;;;16.04;66.81;100338.41;124949;1105;104248;-77
2021/06/08 03:01:45;;;;;;;5.97;3.10;;;;;;;16.07;66.78;100340.22;124941;1105;104298;-77
2021/06/08 03:04:19;;;;;;;7.10;3.10;;;;;;;16.12;67.19;100343.79;125087;1102;104302;-78
2021/06/08 03:06:52;;;;;;;6.95;2.92;;;;;;;16.13;67.19;100343.80;125094;1102;104294;-78
2021/06/08 03:09:32;;;;;;;3.52;2.90;;;;;;;16.13;66.33;100351.74;125121;1102;104691;-78
2021/06/08 03:12:05;;;;;;;5.57;3.10;;;;;;;16.15;67.16;100349.11;124957;1102;104202;-78
2021/06/08 03:14:38;;;;;;;6.10;2.80;;;;;;;16.17;66.85;100350.92;125051;1102;104248;-78
2021/06/08 03:17:10;;;;;;;7.93;3.20;;;;;;;16.21;67.05;100354.47;125088;1102;104185;-76
2021/06/08 03:19:44;;;;;;;8.87;2.80;;;;;;;16.26;66.46;100355.40;125099;1102;104149;-77
2021/06/08 03:22:18;;;;;;;12.40;3.10;;;;;;;16.32;67.22;100359.88;124937;1102;104194;-77
2021/06/08 03:24:53;;;;;;;11.17;3.20;;;;;;;16.38;66.80;100364.33;125025;1102;104160;-77
2021/06/08 03:27:24;;;;;;;4.87;3.00;;;;;;;16.43;67.18;100357.34;125059;1101;104146;-77
2021/06/08 03:29:57;;;;;;;8.27;2.93;;;;;;;16.45;66.46;100363.53;125092;1102;104152;-77
2021/06/08 03:32:34;;;;;;;11.17;3.43;;;;;;;16.48;66.91;100366.20;125100;1102;104280;-78
2021/06/08 03:35:09;;;;;;;6.03;2.77;;;;;;;16.52;66.71;100358.30;125067;1102;104152;-77
2021/06/08 03:37:42;;;;;;;7.57;3.00;;;;;;;16.52;66.90;100363.60;125127;1102;104304;-78
2021/06/08 03:40:14;;;;;;;4.93;2.90;;;;;;;16.55;66.98;100368.05;125174;1102;104152;-78
2021/06/08 03:42:45;;;;;;;4.93;2.90;;;;;;;16.58;67.02;100364.52;125108;1102;104251;-77
2021/06/08 03:45:17;;;;;;;8.10;2.93;;;;;;;16.60;66.45;100371.61;125074;1102;104162;-77
2021/06/08 03:47:48;;;;;;;8.93;3.00;;;;;;;16.64;66.35;100361.92;125095;1102;104146;-77
2021/06/08 03:50:18;;;;;;;6.93;3.00;;;;;;;16.69;66.39;100365.52;125143;1102;104204;-78
2021/06/08 03:52:50;;;;;;;11.30;3.20;;;;;;;16.69;66.83;100363.75;125038;1102;105294;-76
2021/06/08 03:55:23;;;;;;;6.43;3.17;;;;;;;16.71;67.06;100361.99;125045;1102;104188;-78
2021/06/08 03:57:56;;;;;;;11.35;3.47;;;;;;;16.75;66.41;100357.62;125123;1102;104150;-77
2021/06/08 04:00:27;;;;;;;9.70;3.27;;;;;;;16.79;67.02;100367.36;125117;1102;104249;-78
2021/06/08 04:02:57;;;;;;;7.03;3.20;;;;;;;16.83;66.63;100362.99;125146;1102;104252;-78
2021/06/08 04:05:27;;;;;;;16.43;3.70;;;;;;;16.85;66.37;100359.45;125038;1102;104200;-77
2021/06/08 04:07:57;;;;;;;9.23;3.10;;;;;;;16.92;66.99;100364.84;125106;1102;104204;-77
2021/06/08 04:10:28;;;;;;;10.67;3.50;;;;;;;16.97;66.44;100364.01;125097;1102;104178;-77
2021/06/08 04:13:03;;;;;;;9.07;3.40;;;;;;;17.01;66.43;100368.44;124968;1102;104268;-78
2021/06/08 04:15:36;;;;;;;8.30;3.20;;;;;;;17.07;66.53;100362.30;125072;1102;104159;-80
2021/06/08 04:18:10;;;;;;;12.07;3.20;;;;;;;17.13;66.81;100377.38;125110;1102;104251;-77
2021/06/08 04:20:40;;;;;;;8.10;3.20;;;;;;;17.18;66.82;100371.20;125144;1102;104195;-77
2021/06/08 04:23:11;;;;;;;6.57;3.30;;;;;;;17.25;66.59;100377.46;125108;1102;104142;-78
2021/06/08 04:25:44;;;;;;;6.13;3.40;;;;;;;17.32;66.59;100373.95;125047;1102;104194;-78
2021/06/08 04:28:14;;;;;;;8.93;3.37;;;;;;;17.39;66.26;100380.16;125097;1102;104158;-78
2021/06/08 04:30:45;;;;;;;14.97;3.70;;;;;;;17.45;66.40;100389.94;125083;1102;104181;-78
2021/06/08 04:33:20;;;;;;;6.50;3.23;;;;;;;17.50;66.51;100391.75;124992;1102;104146;-77
2021/06/08 04:35:51;;;;;;;10.03;3.50;;;;;;;17.51;66.44;100387.31;124945;1102;104332;-78
2021/06/08 04:38:22;;;;;;;8.77;3.23;;;;;;;17.53;66.33;100391.77;125115;1102;104177;-78
2021/06/08 04:40:53;;;;;;;10.20;3.50;;;;;;;17.59;66.43;100388.23;124946;1102;105223;-78
2021/06/08 04:43:25;;;;;;;7.97;3.77;;;;;;;17.66;66.04;100391.83;125112;1102;104137;-77
2021/06/08 04:45:55;;;;;;;9.17;3.67;;;;;;;17.69;66.16;100391.84;124949;1102;104155;-76
2021/06/08 04:48:25;;;;;;;10.53;3.50;;;;;;;17.72;66.14;100386.55;124945;1102;104222;-78
2021/06/08 04:50:56;;;;;;;7.70;3.47;;;;;;;17.75;65.96;100390.10;124890;1102;104358;-78
2021/06/08 04:53:26;;;;;;;11.20;3.60;;;;;;;17.81;65.83;100391.91;124930;1102;104242;-77
2021/06/08 04:55:57;;;;;;;8.77;3.37;;;;;;;17.87;66.00;100397.24;124974;1102;104328;-78
2021/06/08 04:58:29;;;;;;;8.77;3.63;;;;;;;17.93;66.17;100405.23;125102;1102;104201;-77
2021/06/08 05:01:06;;;;;;;10.50;4.10;;;;;;;18.02;66.06;100404.39;125097;1102;104185;-77
2021/06/08 05:03:42;;;;;;;6.60;3.40;;;;;;;18.07;65.74;100401.75;125165;1102;104120;-77
2021/06/08 05:06:17;;;;;;;10.00;3.40;;;;;;;18.10;65.74;100407.95;125023;1102;104197;-77
2021/06/08 05:08:51;;;;;;;9.87;3.60;;;;;;;18.16;65.98;100400.91;125063;1102;104307;-77
2021/06/08 05:11:27;;;;;;;10.00;3.90;;;;;;;18.22;65.82;100398.27;125100;1102;104188;-77
2021/06/08 05:13:57;;;;;;;10.47;3.80;;;;;;;18.29;65.51;100397.38;125139;1100;104254;-77
2021/06/08 05:16:29;;;;;;;11.30;3.67;;;;;;;18.35;65.72;100396.53;124868;1102;104225;-77
2021/06/08 05:19:01;;;;;;;6.03;3.57;;;;;;;18.43;65.68;100398.33;125108;1102;104162;-77
2021/06/08 05:21:32;;;;;;;13.57;4.00;;;;;;;18.51;65.87;100400.97;125091;1102;104288;-76
2021/06/08 05:24:04;;;;;;;7.53;3.70;;;;;;;18.60;65.80;100392.13;125098;1102;104172;-76
2021/06/08 05:26:34;;;;;;;6.80;3.67;;;;;;;18.66;65.35;100385.04;124800;1102;104241;-76
2021/06/08 05:29:06;;;;;;;13.13;4.53;;;;;;;18.74;65.19;100384.17;124862;1102;104326;-75
2021/06/08 05:31:37;;;;;;;15.87;4.43;;;;;;;18.79;65.33;100379.73;125028;1102;104185;-77
2021/06/08 05:34:07;;;;;;;10.30;4.23;;;;;;;18.86;65.20;100379.77;125027;1102;104162;-76
2021/06/08 05:36:40;;;;;;;9.73;3.90;;;;;;;18.92;65.11;100378.89;125057;1102;105518;-76
2021/06/08 05:39:11;;;;;;;14.33;4.70;;;;;;;18.98;64.81;100384.20;125215;1101;104236;-76
2021/06/08 05:41:41;;;;;;;10.43;4.00;;;;;;;19.07;64.99;100382.42;124952;1102;104342;-76
2021/06/08 05:44:12;;;;;;;10.40;3.93;;;;;;;19.14;64.74;100389.52;125116;1102;104222;-76
2021/06/08 05:46:42;;;;;;;7.03;3.90;;;;;;;19.22;65.04;100383.27;125009;1102;104205;-76
2021/06/08 05:49:13;;;;;;;11.93;4.20;;;;;;;19.30;65.00;100385.05;125048;1102;105325;-76
2021/06/08 05:51:44;;;;;;;8.60;3.97;;;;;;;19.34;64.46;100381.50;125014;1102;104165;-76
2021/06/08 05:54:16;;;;;;;6.30;3.47;;;;;;;19.38;64.18;100383.25;125008;1102;104390;-76
2021/06/08 05:56:47;;;;;;;9.30;3.73;;;;;;;19.43;64.48;100377.92;124910;1102;104150;-77
2021/06/08 05:59:24;;;;;;;10.13;4.40;;;;;;;19.48;64.83;100368.17;124898;1102;104153;-78
2021/06/08 06:01:56;;;;;;;7.53;3.97;;;;;;;19.54;64.46;100376.10;125003;1102;104159;-79
2021/06/08 06:04:28;;;;;;;7.37;3.70;;;;;;;19.61;64.23;100379.66;124975;1102;104405;-77
2021/06/08 06:07:00;;;;;;;11.35;4.20;;;;;;;19.66;64.26;100378.72;124957;1102;104214;-77
2021/06/08 06:09:38;;;;;;;12.50;4.03;;;;;;;19.73;64.14;100368.96;125019;1102;104272;-77
2021/06/08 06:12:11;;;;;;;11.80;4.90;;;;;;;19.83;63.82;100368.05;124959;1102;104210;-77
2021/06/08 06:14:43;;;;;;;;;;;;;;;19.93;63.64;100376.91;124855;1102;104255;-78
2021/06/08 06:17:17;;;;;;;9.90;4.03;;;;;;;20.02;63.86;100371.50;125077;1102;104166;-78
2021/06/08 06:19:50;;;;;;;10.30;3.80;;;;;;;20.09;63.55;100364.38;124994;1102;104175;-78
2021/06/08 06:22:22;;;;;;;8.07;4.00;;;;;;;20.18;64.37;100371.42;124829;1102;104194;-78
2021/06/08 06:24:53;;;;;;;8.57;3.73;;;;;;;20.23;63.96;100366.97;124809;1103;104277;-77
2021/06/08 06:27:32;;;;;;;12.13;4.50;;;;;;;20.32;63.23;100366.91;124803;1102;104280;-77
2021/06/08 06:30:06;;;;;;;12.73;4.30;;;;;;;20.37;63.23;100365.09;125007;1102;104236;-78
2021/06/08 06:32:37;;;;;;;10.03;4.40;;;;;;;20.42;63.14;100362.40;124774;1102;104178;-78
2021/06/08 06:35:12;;;;;;;10.25;4.10;;;;;;;20.47;63.54;100350.82;124818;1102;104264;-77
2021/06/08 06:37:44;;;;;;;6.57;3.83;;;;;;;20.60;62.90;100362.27;125013;1102;104166;-77
2021/06/08 06:40:25;;;;;;;10.23;4.30;;;;;;;20.71;63.13;100353.31;125129;1102;104165;-79
2021/06/08 06:43:01;;;;;;;5.90;3.50;;;;;;;20.83;62.41;100362.12;125131;1102;104373;-78
2021/06/08 06:45:36;;;;;;;7.40;3.83;;;;;;;21.00;62.35;100355.72;125142;1102;104166;-78
2021/06/08 06:48:12;;;;;;;8.93;3.80;;;;;;;21.16;63.00;100362.69;125081;1102;104274;-77
2021/06/08 06:50:45;;;;;;;16.43;4.43;;;;;;;21.31;61.87;100360.76;124921;1102;104200;-79
2021/06/08 06:53:19;;;;;;;7.95;4.10;;;;;;;21.40;61.69;100357.98;125091;1102;104173;-78
2021/06/08 06:55:56;;;;;;;7.40;3.47;;;;;;;21.46;61.87;100355.25;125119;1102;104198;-79
2021/06/08 06:58:27;;;;;;;10.03;4.40;;;;;;;21.52;61.97;100349.88;124945;1102;104885;-79
2021/06/08 07:00:59;;;;;;;11.67;3.80;;;;;;;21.61;61.30;100345.32;125173;1101;104248;-78
2021/06/08 07:03:33;;;;;;;10.00;4.00;;;;;;;21.72;61.87;100349.64;124888;1102;104949;-76
2021/06/08 07:06:06;;;;;;;8.30;3.43;;;;;;;21.85;61.70;100360.16;124888;1102;104181;-77
2021/06/08 07:08:40;;;;;;;7.20;3.57;;;;;;;21.87;61.62;100351.20;124845;1103;104190;-77
2021/06/08 07:11:11;;;;;;;10.43;3.87;;;;;;;21.92;61.12;100350.27;125003;1102;104278;-77
2021/06/08 07:13:47;;;;;;;7.30;3.80;;;;;;;21.97;61.12;100351.09;125081;1102;104149;-77
2021/06/08 07:16:23;;;;;;;7.87;3.47;;;;;;;22.04;60.66;100344.77;124861;1102;104236;-78
2021/06/08 07:18:55;;;;;;;10.00;3.80;;;;;;;22.18;60.78;100347.25;124955;1101;104277;-79
2021/06/08 07:21:29;;;;;;;9.57;3.73;;;;;;;22.37;60.28;100334.52;125058;1102;104206;-78
2021/06/08 07:24:07;;;;;;;7.20;3.53;;;;;;;22.54;59.70;100339.59;124997;1102;104424;-78
2021/06/08 07:26:39;;;;;;;9.77;3.70;;;;;;;22.74;60.29;100342.81;124807;1102;104321;-77
2021/06/08 07:29:13;;;;;;;10.57;3.43;;;;;;;22.95;59.54;100348.70;124723;1102;104178;-77
2021/06/08 07:31:55;;;;;;;11.87;4.33;;;;;;;23.17;59.78;100345.66;124788;1102;104153;-79
2021/06/08 07:34:48;;;;;;;9.23;3.87;;;;;;;23.39;59.25;100339.00;124821;1102;104210;-77
2021/06/08 07:37:23;;;;;;;11.77;3.80;;;;;;;23.58;59.01;100342.19;124886;1103;104326;-78
2021/06/08 07:39:58;;;;;;;10.00;3.60;;;;;;;23.73;58.76;100337.41;124981;1102;104172;-77
2021/06/08 07:42:38;;;;;;;8.03;3.70;;;;;;;23.86;58.39;100336.28;125076;1102;104166;-76
2021/06/08 07:45:12;;;;;;;7.47;3.30;;;;;;;24.01;57.99;100335.95;124907;1102;104778;-76
2021/06/08 07:47:48;;;;;;;8.00;3.47;;;;;;;24.17;57.85;100339.15;125066;1102;104248;-76
2021/06/08 07:50:25;;;;;;;6.23;3.33;;;;;;;24.31;56.88;100333.47;124881;1106;104216;-77
2021/06/08 07:52:57;;;;;;;4.80;3.50;;;;;;;24.48;57.02;100334.84;125114;1102;104226;-76
2021/06/08 07:55:30;;;;;;;10.07;3.47;;;;;;;24.61;55.11;100335.48;124840;1102;104143;-76
2021/06/08 07:58:05;;;;;;;5.85;3.40;;;;;;;24.78;55.92;100337.70;124911;1102;104573;-78
2021/06/08 08:00:39;;;;;;;4.17;3.17;;;;;;;24.90;55.89;100330.24;125017;1102;104288;-78
2021/06/08 08:06:06;;;;;;;8.30;3.67;;;;;;;25.33;55.11;100330.03;124944;1102;104283;-77
2021/06/08 08:08:43;;;;;;;10.43;3.60;;;;;;;25.46;54.85;100331.42;125110;1102;104162;-78
2021/06/08 08:11:21;;;;;;;6.53;3.70;;;;;;;25.52;54.36;100341.13;125205;1101;108023;-79
2021/06/08 08:13:57;;;;;;;7.90;3.30;;;;;;;25.55;54.05;100339.22;125115;1102;104229;-76
2021/06/08 08:16:29;;;;;;;3.43;3.10;;;;;;;25.68;54.14;100338.87;124846;1105;104331;-76
2021/06/08 08:19:04;;;;;;;6.80;3.33;;;;;;;25.77;53.82;100335.91;124943;1105;104158;-78
2021/06/08 08:21:37;;;;;;;6.40;3.20;;;;;;;25.87;53.16;100347.25;124978;1105;112897;-77
2021/06/08 08:24:10;;;;;;;4.30;3.25;;;;;;;26.00;53.22;100332.56;124932;1105;104798;-77
2021/06/08 08:26:42;;;;;;;;;;;;;;;26.15;51.78;100342.84;124878;1105;104306;-77
2021/06/08 08:29:16;;;;;;;6.23;3.50;;;;;;;26.23;52.44;100339.04;124926;1105;104235;-77
2021/06/08 08:31:47;;;;;;;10.20;3.50;;;;;;;26.30;52.25;100340.59;124968;1105;104379;-76
2021/06/08 08:34:25;;;;;;;7.33;3.33;;;;;;;26.37;51.50;100336.78;124939;1105;104345;-78
2021/06/08 08:36:56;;;;;;;8.30;3.30;;;;;;;26.39;51.48;100329.53;124917;1106;104254;-79
2021/06/08 08:41:09;;;;;;;7.67;3.30;;;;;;;26.48;50.90;100331.05;125171;1102;104222;-76
2021/06/08 08:43:40;;;;;;;5.67;3.00;;;;;;;26.52;50.71;100336.28;125044;1102;102791;-77
2021/06/08 08:46:15;;;;;;;5.13;3.30;;;;;;;26.53;50.44;100327.26;125125;1102;104143;-77
2021/06/08 08:48:52;;;;;;;12.37;3.80;;;;;;;26.58;50.89;100318.16;125165;1102;104216;-76
2021/06/08 08:51:25;;;;;;;10.20;3.60;;;;;;;26.65;49.29;100335.87;124880;1102;104427;-76
2021/06/08 08:53:59;;;;;;;10.58;3.35;;;;;;;26.60;49.55;100333.34;124885;1102;104241;-76
2021/06/08 08:56:32;;;;;;;5.33;3.10;;;;;;;26.67;48.94;100336.73;125102;1102;104142;-77
2021/06/08 08:59:08;;;;;;;5.90;3.07;;;;;;;26.71;48.72;100328.50;125071;1102;104219;-78
2021/06/08 09:01:42;;;;;;;5.33;2.93;;;;;;;26.78;48.83;100325.59;125053;1102;104184;-77
2021/06/08 09:04:14;;;;;;;8.63;3.40;;;;;;;26.81;48.26;100337.12;125117;1102;104273;-78
2021/06/08 09:06:45;;;;;;;5.40;3.13;;;;;;;26.90;47.91;100327.87;125015;1102;104140;-78
2021/06/08 09:09:17;;;;;;;;;;;;;;;26.95;46.73;100327.71;125003;1102;104137;-79
2021/06/08 09:11:50;;;;;;;6.30;3.40;;;;;;;26.96;47.31;100327.66;125057;1102;105601;-77
2021/06/08 09:14:25;;;;;;;4.03;3.00;;;;;;;26.96;46.88;100324.97;124956;1102;104213;-77
2021/06/08 09:17:01;;;;;;;4.33;2.97;;;;;;;26.97;46.88;100321.31;125009;1102;104345;-77
2021/06/08 09:19:34;;;;;;;5.80;2.97;;;;;;;26.89;46.39;100334.17;124953;1102;104280;-77
2021/06/08 09:22:13;;;;;;;7.22;3.20;;;;;;;26.74;46.42;100332.91;125077;1102;104181;-78
2021/06/08 09:24:54;;;;;;;4.83;2.97;;;;;;;26.72;46.68;100319.50;125051;1102;104220;-77
2021/06/08 09:27:30;;;;;;;5.95;3.40;;;;;;;26.71;46.17;100323.12;125049;1102;104150;-78
2021/06/08 09:30:20;;;;;;;6.97;3.20;;;;;;;26.61;45.64;100320.75;124976;1103;104146;-77
2021/06/08 09:32:54;;;;;;;4.57;2.90;;;;;;;26.48;45.36;100317.60;124962;1102;104243;-77
2021/06/08 09:35:34;;;;;;;6.17;3.10;;;;;;;26.45;45.47;100315.02;125162;1102;104255;-76
2021/06/08 09:38:04;;;;;;;5.87;3.00;;;;;;;26.49;45.30;100314.86;125096;1101;104174;-77
2021/06/08 09:40:39;;;;;;;4.87;3.10;;;;;;;26.54;45.24;100318.27;125042;1102;104176;-77
2021/06/08 09:43:12;;;;;;;6.20;2.90;;;;;;;26.58;45.33;100302.89;125038;1102;109298;-77
2021/06/08 09:45:49;;;;;;;4.87;3.10;;;;;;;26.63;44.85;100310.81;125126;1102;104198;-79
2021/06/08 09:48:20;;;;;;;5.20;3.07;;;;;;;26.69;45.13;100316.92;125066;1102;104168;-79
2021/06/08 09:50:55;;;;;;;6.07;3.50;;;;;;;26.71;44.67;100316.87;125150;1102;104213;-76
2021/06/08 09:53:30;;;;;;;5.57;3.00;;;;;;;26.63;44.51;100305.42;124989;1102;117783;-76
2021/06/08 09:56:07;;;;;;;4.23;3.20;;;;;;;26.64;44.70;100299.13;125073;1102;104197;-77
2021/06/08 09:58:46;;;;;;;4.80;3.17;;;;;;;26.71;44.09;100292.64;124940;1102;104165;-77
2021/06/08 10:01:31;;;;;;;6.33;3.30;;;;;;;26.72;44.34;100284.52;124962;1103;104431;-78
2021/06/08 10:04:05;;;;;;;7.47;3.20;;;;;;;26.79;44.61;100289.69;124839;1103;105691;-76
2021/06/08 10:06:40;;;;;;;5.80;3.30;;;;;;;26.87;44.42;100293.85;125068;1102;104204;-78
2021/06/08 10:09:16;;;;;;;6.05;3.40;;;;;;;26.92;44.45;100303.59;125007;1101;104415;-77
2021/06/08 10:12:05;;;;;;;8.07;4.10;;;;;;;26.83;43.91;100281.45;125069;1102;104200;-78
2021/06/08 10:14:44;;;;;;;12.47;3.37;;;;;;;26.88;43.99;100289.34;124924;1102;104592;-78
2021/06/08 10:17:31;;;;;;;7.87;3.37;;;;;;;26.90;43.73;100285.67;125237;1102;104296;-77
2021/06/08 10:20:25;;;;;;;7.40;3.47;;;;;;;26.87;43.35;100277.70;124998;1102;104159;-78
2021/06/08 10:22:56;;;;;;;7.90;3.20;;;;;;;26.86;43.80;100284.00;125043;1099;104182;-76
2021/06/08 10:25:27;;;;;;;7.93;3.33;;;;;;;26.83;43.61;100272.48;125052;1099;104602;-77
2021/06/08 10:28:00;;;;;;;6.57;3.30;;;;;;;26.81;43.33;100267.14;125033;1101;104169;-77
2021/06/08 10:30:34;;;;;;;5.87;3.33;;;;;;;26.84;43.37;100264.34;125128;1102;104329;-77
2021/06/08 10:33:08;;;;;;;4.97;3.40;;;;;;;26.89;43.17;100264.19;125008;1102;104157;-77
2021/06/08 10:35:40;;;;;;;9.63;3.50;;;;;;;26.88;43.12;100260.63;125078;1099;104266;-77
2021/06/08 10:38:15;;;;;;;5.63;3.40;;;;;;;26.88;42.98;100257.03;125087;1099;104178;-78
2021/06/08 10:40:52;;;;;;;8.23;4.10;;;;;;;26.86;42.30;100256.22;125076;1100;104610;-77
2021/06/08 10:47:52;;;;;;;6.80;3.30;;;;;;;26.84;42.81;100244.64;124931;1102;119179;-79
2021/06/08 10:50:45;;;;;;;9.63;3.47;;;;;;;26.82;42.58;100246.52;124948;1102;104386;-78
2021/06/08 10:53:55;;;;;;;6.17;3.60;;;;;;;26.84;42.35;100236.56;124890;1102;104447;-78
2021/06/08 10:56:36;;;;;;;9.93;3.50;;;;;;;26.93;42.34;100238.92;125045;1101;105711;-77
2021/06/08 10:59:10;;;;;;;8.13;3.70;;;;;;;27.08;42.45;100232.08;124929;1102;104159;-77
2021/06/08 11:01:49;;;;;;;;;;;;;;;27.11;41.76;100240.05;124981;1102;104453;-78
2021/06/08 11:04:27;;;;;;;8.07;3.60;;;;;;;27.16;42.47;100235.39;124845;1102;104470;-78
2021/06/08 11:07:01;;;;;;;10.50;3.60;;;;;;;27.19;42.30;100223.60;125106;1102;104160;-76
2021/06/08 11:12:23;;;;;;;7.43;3.90;;;;;;;27.33;42.00;100226.71;100993;1103;104424;-77
2021/06/08 11:14:59;;;;;;;8.43;3.70;;;;;;;27.33;42.12;100224.02;124715;1106;104178;-77
2021/06/08 11:17:43;;;;;;;5.33;3.20;;;;;;;27.34;41.82;100211.41;124808;1102;104344;-76
2021/06/08 11:20:27;;;;;;;7.47;3.50;;;;;;;27.34;41.73;100201.50;124822;1102;104245;-77
2021/06/08 11:23:03;;;;;;;6.53;3.40;;;;;;;27.30;41.15;100210.63;124964;1102;104182;-77
2021/06/08 11:25:53;;;;;;;9.47;3.60;;;;;;;27.24;41.95;100192.01;125054;1102;104326;-78
2021/06/08 11:28:39;;;;;;;7.70;3.23;;;;;;;27.21;41.23;100200.20;125053;1102;104153;-76
2021/06/08 11:31:11;;;;;;;5.77;3.13;;;;;;;27.12;41.15;100196.03;125018;1102;104153;-77
2021/06/08 11:33:43;;;;;;;4.43;2.90;;;;;;;27.09;41.22;100194.33;125107;1102;104256;-77
2021/06/08 11:36:33;;;;;;;5.40;3.33;;;;;;;27.14;41.60;100195.98;125088;1102;104142;-77
2021/06/08 11:39:28;;;;;;;8.40;3.40;;;;;;;27.10;40.92;100187.14;125178;1102;107943;-77
2021/06/08 11:42:01;;;;;;;4.43;2.90;;;;;;;27.05;40.25;100178.34;125088;1103;104563;-77
2021/06/08 11:44:31;;;;;;;4.77;3.00;;;;;;;27.03;40.87;100174.84;125041;1102;104395;-77
2021/06/08 11:47:04;;;;;;;3.53;2.80;;;;;;;27.06;40.94;100172.89;125113;1102;104299;-78
2021/06/08 11:49:36;;;;;;;6.60;3.17;;;;;;;27.09;40.50;100179.99;125122;1102;108032;-77
2021/06/08 11:52:12;;;;;;;6.77;2.90;;;;;;;27.11;40.89;100167.34;125207;1102;104172;-78
2021/06/08 11:54:48;;;;;;;6.30;3.30;;;;;;;27.16;40.33;100167.16;125178;1101;104143;-79